»·PEaware :: N815PA KSNA-KLAS

N815PA :: KSNA-KLAS

FLIGHT INFORMATION

Flight Status: Arrived
Operator: Privately registered:
United States
More flights under this callsign
Pilot: Felix V. (26365)
Aircraft: SOCATA TBM-900
(TBM9)
More flights by this aircraft type
Origin: KSNA John Wayne-Orange Co
United States
Destination: KLAS McCarran Intl
United States
More flights between these airports :: More routes between these airports
Route: +MUSEL8 DAG CRESO4
File this flight plan on PilotEdge
Remarks:
Altitude:
(Current/Filed)
24,000ft
Speed:
(Current/Filed)
300kts
Departed: 10-Nov-19 11:03 AM
Arrived: 10-Nov-19 12:09 PM
Distance/Time
Traveled:
197nm/1:05
Distance/Time
To Go:
Arrived

Flight Plot

Page will automatically refresh every two minutes.

Flight plan parsing failed; only flown route is shown


Map Options




Map Legend


Flown Route
Filed Route
Departure Airport
Arrival Airport
Navaid (VOR, NDB)
Fix

Horizontal Profiles

Position Reports

Time Latitude Longitude Heading Altitude Ground
Speed
10-Nov-19 10:21 33.671841 -117.867157 206 59ft 0kts
10-Nov-19 10:22 33.671841 -117.867157 206 59ft 0kts
10-Nov-19 10:23 33.671841 -117.867157 206 59ft 0kts
10-Nov-19 10:24 33.671841 -117.867157 206 59ft 0kts
10-Nov-19 10:25 33.671840 -117.867157 206 59ft 0kts
10-Nov-19 10:26 33.671840 -117.867157 206 59ft 0kts
10-Nov-19 10:27 33.671840 -117.867157 206 59ft 0kts
10-Nov-19 10:28 33.671840 -117.867157 206 59ft 0kts
10-Nov-19 10:29 33.671840 -117.867157 206 59ft 0kts
10-Nov-19 10:30 33.671840 -117.867157 206 59ft 0kts
10-Nov-19 10:31 33.671840 -117.867157 206 59ft 0kts
10-Nov-19 10:32 33.671840 -117.867157 206 59ft 0kts
10-Nov-19 10:33 33.671840 -117.867157 206 59ft 0kts
10-Nov-19 10:34 33.671840 -117.867157 206 59ft 0kts
10-Nov-19 10:35 33.671840 -117.867157 206 59ft 0kts
10-Nov-19 10:36 33.671840 -117.867157 206 59ft 0kts
10-Nov-19 10:37 33.671840 -117.867157 206 59ft 0kts
10-Nov-19 10:38 33.671840 -117.867157 206 59ft 0kts
10-Nov-19 10:39 33.671840 -117.867157 206 59ft 0kts
10-Nov-19 10:40 33.671840 -117.867157 206 59ft 0kts
10-Nov-19 10:41 33.671840 -117.867157 206 59ft 0kts
10-Nov-19 10:42 33.671840 -117.867157 206 59ft 0kts
10-Nov-19 10:43 33.671840 -117.867157 206 59ft 0kts
10-Nov-19 10:44 33.671840 -117.867157 206 59ft 0kts
10-Nov-19 10:45 33.671840 -117.867157 206 59ft 0kts
10-Nov-19 10:46 33.671840 -117.867157 206 59ft 0kts
10-Nov-19 10:47 33.671840 -117.867157 206 59ft 0kts
10-Nov-19 10:48 33.671840 -117.867157 206 59ft 0kts
10-Nov-19 10:49 33.671840 -117.867157 206 59ft 0kts
10-Nov-19 10:50 33.671840 -117.867157 206 59ft 0kts
10-Nov-19 10:51 33.671840 -117.867157 206 59ft 0kts
10-Nov-19 10:52 33.671840 -117.867157 206 59ft 0kts
10-Nov-19 10:53 33.671840 -117.867157 206 59ft 0kts
10-Nov-19 10:54 33.672742 -117.867699 37 59ft 18kts
10-Nov-19 10:55 33.677452 -117.864963 28 59ft 27kts
10-Nov-19 10:56 33.679979 -117.863662 298 59ft 0kts
10-Nov-19 10:57 33.679979 -117.863662 298 59ft 0kts
10-Nov-19 10:58 33.679979 -117.863662 298 59ft 0kts
10-Nov-19 10:59 33.680459 -117.864760 297 59ft 0kts
10-Nov-19 11:00 33.680459 -117.864760 297 59ft 0kts
10-Nov-19 11:01 33.680459 -117.864760 297 59ft 0kts
10-Nov-19 11:02 33.664002 -117.875534 208 425ft 156kts
10-Nov-19 11:03 33.620819 -117.891609 188 2632ft 135kts
10-Nov-19 11:04 33.584599 -117.899295 188 4432ft 133kts
10-Nov-19 11:05 33.546843 -117.906272 165 5663ft 137kts
10-Nov-19 11:06 33.536781 -117.866702 91 6858ft 136kts
10-Nov-19 11:07 33.535676 -117.821879 91 7950ft 138kts
10-Nov-19 11:08 33.534444 -117.776333 86 8965ft 141kts
10-Nov-19 11:09 33.567515 -117.766489 351 10274ft 149kts
10-Nov-19 11:10 33.600980 -117.792205 321 12190ft 154kts
10-Nov-19 11:11 33.638214 -117.829108 321 13036ft 223kts
10-Nov-19 11:12 33.687682 -117.871691 351 12968ft 262kts
10-Nov-19 11:13 33.760524 -117.856453 11 13000ft 268kts
10-Nov-19 11:14 33.834303 -117.838675 11 13001ft 270kts
10-Nov-19 11:15 33.906315 -117.821314 11 13313ft 260kts
10-Nov-19 11:16 33.958799 -117.809323 11 16696ft 180kts
10-Nov-19 11:17 34.008790 -117.798439 11 18468ft 187kts
10-Nov-19 11:18 34.060975 -117.787316 11 20285ft 195kts
10-Nov-19 11:19 34.102623 -117.753227 45 22418ft 197kts
10-Nov-19 11:20 34.141171 -117.702472 46 24123ft 227kts
10-Nov-19 11:21 34.188593 -117.638641 46 24105ft 275kts
10-Nov-19 11:22 34.241450 -117.567227 46 24095ft 290kts
10-Nov-19 11:23 34.295538 -117.493999 46 24118ft 291kts
10-Nov-19 11:24 34.349455 -117.420849 46 24145ft 291kts
10-Nov-19 11:25 34.403064 -117.347967 47 24170ft 291kts
10-Nov-19 11:26 34.457293 -117.274084 47 24159ft 292kts
10-Nov-19 11:27 34.511286 -117.200366 47 24158ft 292kts
10-Nov-19 11:28 34.565216 -117.126575 47 24172ft 292kts
10-Nov-19 11:29 34.619121 -117.052664 47 24175ft 293kts
10-Nov-19 11:30 34.673509 -116.977931 47 24157ft 296kts
10-Nov-19 11:31 34.728352 -116.902396 47 24146ft 299kts
10-Nov-19 11:32 34.783930 -116.825722 47 24149ft 304kts
10-Nov-19 11:33 34.839959 -116.748209 47 24144ft 305kts
10-Nov-19 11:34 34.896140 -116.670322 47 24146ft 306kts
10-Nov-19 11:35 34.952314 -116.592287 47 24147ft 307kts
10-Nov-19 11:36 34.996143 -116.502531 60 24150ft 310kts
10-Nov-19 11:37 35.037068 -116.410287 60 24148ft 308kts
10-Nov-19 11:38 35.077923 -116.318040 61 24154ft 308kts
10-Nov-19 11:39 35.119151 -116.224703 61 22129ft 314kts
10-Nov-19 11:40 35.159834 -116.132339 61 19751ft 308kts
10-Nov-19 11:41 35.198840 -116.043523 61 18405ft 289kts
10-Nov-19 11:42 35.236301 -115.958023 61 17148ft 283kts
10-Nov-19 11:44 35.273268 -115.873438 61 15904ft 281kts
10-Nov-19 11:45 35.310096 -115.789141 59 14662ft 281kts
10-Nov-19 11:46 35.362256 -115.718367 46 13421ft 278kts
10-Nov-19 11:47 35.413830 -115.649571 46 12205ft 272kts
10-Nov-19 11:48 35.464516 -115.581796 46 11013ft 268kts
10-Nov-19 11:49 35.514843 -115.514379 46 10055ft 261kts
10-Nov-19 11:50 35.561894 -115.451249 46 10052ft 245kts
10-Nov-19 11:51 35.607789 -115.389575 46 10060ft 250kts
10-Nov-19 11:52 35.655799 -115.324937 47 10056ft 259kts
10-Nov-19 11:53 35.704532 -115.259196 47 10055ft 260kts
10-Nov-19 11:54 35.753337 -115.193227 47 10054ft 260kts
10-Nov-19 11:55 35.803935 -115.126191 47 9107ft 282kts
10-Nov-19 11:56 35.856085 -115.054976 47 7075ft 262kts
10-Nov-19 11:57 35.896997 -114.999020 47 7017ft 193kts
10-Nov-19 11:58 35.931987 -114.951094 47 7029ft 188kts
10-Nov-19 11:59 35.968212 -114.901408 47 6304ft 212kts
10-Nov-19 11:59 36.003072 -114.861469 6 5501ft 190kts
10-Nov-19 12:00 36.053553 -114.858614 347 4997ft 156kts
10-Nov-19 12:02 36.073441 -114.906086 270 4475ft 159kts
10-Nov-19 12:03 36.073935 -114.960621 272 3810ft 139kts
10-Nov-19 12:03 36.073864 -114.998405 270 3831ft 132kts
10-Nov-19 12:05 36.073774 -115.047347 270 3316ft 114kts
10-Nov-19 12:06 36.073734 -115.082432 271 2796ft 102kts
10-Nov-19 12:06 36.073667 -115.110307 270 2348ft 93kts
10-Nov-19 12:07 36.073653 -115.136525 270 2072ft 46kts
10-Nov-19 12:08 36.075069 -115.146447 330 2099ft 17kts
10-Nov-19 12:09 36.077283 -115.146542 356 2098ft 0kts
10-Nov-19 12:10 36.079710 -115.147396 359 2094ft 26kts
10-Nov-19 12:11 36.080023 -115.147311 27 2092ft 0kts
10-Nov-19 12:12 36.080023 -115.147311 27 2092ft 0kts
10-Nov-19 12:13 36.080023 -115.147311 27 2092ft 0kts
10-Nov-19 12:14 36.080023 -115.147311 27 2092ft 0kts
10-Nov-19 12:15 36.080023 -115.147311 27 2092ft 0kts
10-Nov-19 12:16 36.080023 -115.147311 27 2092ft 0kts

Navigation Log

Ident Type
Flight plan parsing failed, navigation log unavailable